Terminal Aerodrome Forecast
Issued by NWS Sterling, VA

Home | Current Version | Previous Version | Text Only | Print | Product List | Glossary On
Versions: 1 2 3 4 5 6 7 8 9 10 11 12 13 14 15 16 17 18 19 20 21 22
000
FTUS41 KLWX 211700 RRA
TAFDCA
TAF
KDCA 211746Z 2118/2218 VRB04KT P6SM SCT050 BKN100
     FM212100 35004KT 6SM -SHRA BKN050
     FM220300 33007KT P6SM OVC025
     FM220600 34007KT 3SM -SHRA OVC008
     FM221200 34011G18KT P6SM OVC008
     FM221500 34014G21KT P6SM OVC015=

USA.gov is the U.S. government's official web portal to all federal, state and local government web resources and services.